RJOS(METAR)
12/04 19:00
METAR RJOS 041000Z 29007KT 9999 FEW030 SCT050 BKN140 12/07 Q1023 RMK
1CU030 3SC050 7AC140 A3022=
戻る
トップページへ戻る
IMOC Co,.Ltd.